createdAt,value
2018-07-06T00:01:20.982Z,5.63
2018-07-06T00:04:07.208Z,5.60
2018-07-06T00:06:53.462Z,5.17
2018-07-06T00:09:39.762Z,4.53
2018-07-06T00:12:26.137Z,4.37
2018-07-06T00:15:12.137Z,4.43
2018-07-06T00:17:58.483Z,4.43
2018-07-06T00:20:44.720Z,4.80
2018-07-06T00:23:30.982Z,4.20
2018-07-06T00:26:17.393Z,4.50
2018-07-06T00:29:03.874Z,4.40
2018-07-06T00:31:50.266Z,3.70
2018-07-06T00:34:36.595Z,4.00
2018-07-06T00:37:23.655Z,4.10
2018-07-06T00:40:10.102Z,4.30
2018-07-06T00:42:56.464Z,3.60
2018-07-06T00:45:42.759Z,3.67
2018-07-06T00:48:29.625Z,3.77
2018-07-06T00:51:16.069Z,3.60
2018-07-06T00:54:02.480Z,4.07
2018-07-06T00:56:49.013Z,4.10
2018-07-06T00:59:35.175Z,4.10
2018-07-06T01:02:21.525Z,3.43
2018-07-06T01:05:07.845Z,4.47
2018-07-06T01:07:53.975Z,3.87
2018-07-06T01:10:40.338Z,3.67
2018-07-06T01:13:26.682Z,3.70
2018-07-06T01:16:13.193Z,4.43
2018-07-06T01:18:59.397Z,4.63
2018-07-06T01:21:45.816Z,3.97
2018-07-06T01:24:32.190Z,5.23
2018-07-06T01:27:18.401Z,4.97
2018-07-06T01:30:04.818Z,4.07
2018-07-06T01:32:51.307Z,4.13
2018-07-06T01:35:37.585Z,4.40
2018-07-06T01:38:24.021Z,4.00
2018-07-06T01:41:10.544Z,4.53
2018-07-06T01:43:56.849Z,4.40
2018-07-06T01:46:43.173Z,4.03
2018-07-06T01:49:29.457Z,3.70
2018-07-06T01:52:15.821Z,4.77
2018-07-06T01:55:02.111Z,3.90
2018-07-06T01:57:48.409Z,3.90
2018-07-06T02:00:34.932Z,3.87
2018-07-06T02:03:21.503Z,3.67
2018-07-06T02:06:07.950Z,3.60
2018-07-06T02:08:54.342Z,3.90
2018-07-06T02:11:40.996Z,3.80
2018-07-06T02:14:27.399Z,3.60
2018-07-06T02:17:13.649Z,3.00
2018-07-06T02:20:00.129Z,4.00
2018-07-06T02:22:46.257Z,3.43
2018-07-06T02:25:32.762Z,3.33
2018-07-06T02:28:18.877Z,2.90
2018-07-06T02:31:05.151Z,3.63
2018-07-06T02:33:51.494Z,3.47
2018-07-06T02:36:37.910Z,2.90
2018-07-06T02:39:24.067Z,3.90
2018-07-06T02:42:10.467Z,4.50
2018-07-06T02:44:56.832Z,3.53
2018-07-06T02:47:43.005Z,3.50
2018-07-06T02:50:29.395Z,3.47
2018-07-06T02:53:15.726Z,3.63
2018-07-06T02:56:02.159Z,3.70
2018-07-06T02:58:48.318Z,3.90
2018-07-06T03:01:34.685Z,4.43
2018-07-06T03:04:21.041Z,4.00
2018-07-06T03:07:07.538Z,4.07
2018-07-06T03:09:53.810Z,3.80
2018-07-06T03:12:40.045Z,3.57
2018-07-06T03:15:26.323Z,4.00
2018-07-06T03:18:12.736Z,4.83
2018-07-06T03:20:59.020Z,3.67
2018-07-06T03:23:45.511Z,3.60
2018-07-06T03:26:31.800Z,4.13
2018-07-06T03:29:18.224Z,3.67
2018-07-06T03:32:04.645Z,3.60
2018-07-06T03:34:50.780Z,3.43
2018-07-06T03:37:37.277Z,3.77
2018-07-06T03:40:23.759Z,4.17
2018-07-06T03:43:09.936Z,3.10
2018-07-06T03:45:56.199Z,3.17
2018-07-06T03:48:42.432Z,3.40
2018-07-06T03:51:29.743Z,3.50
2018-07-06T03:54:16.186Z,3.23
2018-07-06T03:57:02.440Z,3.73
2018-07-06T03:59:48.781Z,4.40
2018-07-06T04:02:35.164Z,3.60
2018-07-06T04:05:21.533Z,3.57
2018-07-06T04:08:07.883Z,3.30
2018-07-06T04:10:54.349Z,2.57
2018-07-06T04:13:40.595Z,2.40
2018-07-06T04:16:26.893Z,3.10
2018-07-06T04:19:13.362Z,3.57
2018-07-06T04:21:59.761Z,2.90
2018-07-06T04:24:45.743Z,3.53
2018-07-06T04:27:32.021Z,3.07
2018-07-06T04:30:18.333Z,3.03
2018-07-06T04:33:04.611Z,4.97
2018-07-06T04:35:51.146Z,3.13
2018-07-06T04:38:37.486Z,4.00
2018-07-06T04:41:24.093Z,3.50
2018-07-06T04:44:10.520Z,3.83
2018-07-06T04:46:56.825Z,3.97
2018-07-06T04:49:43.185Z,3.97
2018-07-06T04:52:29.460Z,4.47
2018-07-06T04:55:15.736Z,5.57
2018-07-06T04:58:02.135Z,4.77
2018-07-06T05:00:48.300Z,4.97
2018-07-06T05:03:34.592Z,6.87
2018-07-06T05:06:21.160Z,5.87
2018-07-06T05:09:07.776Z,5.60
2018-07-06T05:11:54.053Z,6.80
2018-07-06T05:14:40.144Z,5.30
2018-07-06T05:17:26.415Z,5.67
2018-07-06T05:20:12.634Z,5.03
2018-07-06T05:22:52.953Z,6.20
2018-07-06T05:25:39.245Z,5.20
2018-07-06T05:28:25.721Z,5.30
2018-07-06T05:31:12.142Z,5.63
2018-07-06T05:33:58.323Z,5.10
2018-07-06T05:36:44.665Z,5.53
2018-07-06T05:39:30.948Z,4.87
2018-07-06T05:42:17.217Z,3.67
2018-07-06T05:45:03.634Z,4.13
2018-07-06T05:47:50.129Z,4.00
2018-07-06T05:50:36.614Z,5.97
2018-07-06T05:53:23.048Z,6.40
2018-07-06T05:56:09.385Z,4.63
2018-07-06T05:58:55.794Z,4.80
2018-07-06T06:01:42.416Z,4.63
2018-07-06T06:04:28.882Z,5.03
2018-07-06T06:07:15.301Z,4.90
2018-07-06T06:09:44.727Z,4.43
2018-07-06T06:12:14.180Z,6.67
2018-07-06T06:14:43.517Z,4.70
2018-07-06T06:17:13.212Z,4.80
2018-07-06T06:19:42.685Z,4.57
2018-07-06T06:22:12.062Z,4.70
2018-07-06T06:24:41.528Z,5.13
2018-07-06T06:27:10.856Z,4.70
2018-07-06T06:29:40.263Z,3.70
2018-07-06T06:32:10.251Z,3.23
2018-07-06T06:34:39.595Z,4.07
2018-07-06T06:37:08.641Z,4.00
2018-07-06T06:39:37.970Z,3.73
2018-07-06T06:42:07.315Z,3.90
2018-07-06T06:44:36.749Z,3.50
2018-07-06T06:47:06.146Z,4.03
2018-07-06T06:49:35.676Z,4.80
2018-07-06T06:52:05.023Z,3.73
2018-07-06T06:54:34.426Z,5.27
2018-07-06T06:57:03.897Z,5.30
2018-07-06T06:59:33.347Z,5.97
2018-07-06T07:02:02.753Z,5.17
2018-07-06T07:04:32.325Z,3.83
2018-07-06T07:07:01.919Z,4.60
2018-07-06T07:09:31.296Z,5.37
2018-07-06T07:12:00.690Z,5.50
2018-07-06T07:14:30.111Z,3.80
2018-07-06T07:16:59.568Z,4.13
2018-07-06T07:19:29.116Z,4.90
2018-07-06T07:21:58.528Z,3.23
2018-07-06T07:24:28.022Z,3.30
2018-07-06T07:27:00.390Z,4.60
2018-07-06T07:29:30.263Z,3.77
2018-07-06T07:31:59.725Z,4.17
2018-07-06T07:34:30.133Z,3.40
2018-07-06T07:36:59.567Z,4.77
2018-07-06T07:39:29.034Z,4.30
2018-07-06T07:41:58.411Z,3.10
2018-07-06T07:44:27.834Z,5.50
2018-07-06T07:46:57.280Z,6.03
2018-07-06T07:49:26.753Z,4.77
2018-07-06T07:52:13.503Z,4.20
2018-07-06T07:54:55.486Z,3.10
2018-07-06T07:57:25.152Z,3.90
2018-07-06T07:59:56.744Z,3.70
2018-07-06T08:02:26.511Z,3.30
2018-07-06T08:04:55.862Z,5.73
2018-07-06T08:07:25.206Z,2.93
2018-07-06T08:09:54.546Z,2.80
2018-07-06T08:12:24.310Z,3.90
2018-07-06T08:14:54.022Z,2.83
2018-07-06T08:17:23.375Z,2.97
2018-07-06T08:19:52.790Z,2.60
2018-07-06T08:22:22.149Z,4.10
2018-07-06T08:24:51.530Z,3.27
2018-07-06T08:27:20.874Z,3.27
2018-07-06T08:29:50.258Z,4.50
2018-07-06T08:32:19.589Z,2.70
2018-07-06T08:35:05.865Z,3.10
2018-07-06T08:37:54.780Z,3.13
2018-07-06T08:40:25.344Z,3.93
2018-07-06T08:42:55.938Z,2.87
2018-07-06T08:45:25.687Z,3.33
2018-07-06T08:47:55.089Z,2.80
2018-07-06T08:50:25.445Z,3.40
2018-07-06T08:52:55.451Z,3.10
2018-07-06T08:55:25.263Z,3.83
2018-07-06T08:57:55.876Z,3.07
2018-07-06T09:00:25.233Z,2.27
2018-07-06T09:02:54.577Z,2.60
2018-07-06T09:05:23.904Z,2.77
2018-07-06T09:07:53.275Z,2.80
2018-07-06T09:10:22.747Z,3.93
2018-07-06T09:12:52.083Z,3.07
2018-07-06T09:15:21.420Z,20.83
2018-07-06T09:17:50.723Z,4.43
2018-07-06T09:20:20.056Z,4.27
2018-07-06T09:22:49.648Z,5.20
2018-07-06T09:25:19.006Z,6.03
2018-07-06T09:27:48.325Z,4.53
2018-07-06T09:30:17.774Z,4.97
2018-07-06T09:32:47.110Z,6.30
2018-07-06T09:35:18.542Z,5.70
2018-07-06T09:37:47.950Z,5.23
2018-07-06T09:40:17.252Z,6.07
2018-07-06T09:42:46.611Z,6.17
2018-07-06T09:45:15.937Z,6.17
2018-07-06T09:47:45.517Z,10.57
2018-07-06T09:50:14.822Z,21.13
2018-07-06T09:52:44.173Z,8.17
2018-07-06T09:55:13.602Z,7.87
2018-07-06T09:57:42.968Z,8.10
2018-07-06T10:00:16.494Z,8.00
2018-07-06T10:02:45.887Z,8.07
2018-07-06T10:05:15.410Z,14.67
2018-07-06T10:07:44.797Z,9.17
2018-07-06T10:10:14.256Z,9.63
2018-07-06T10:12:43.765Z,8.97
2018-07-06T10:15:13.183Z,13.53
2018-07-06T10:17:42.573Z,11.80
2018-07-06T10:20:11.966Z,13.13
2018-07-06T10:22:41.344Z,18.20
2018-07-06T10:25:10.724Z,13.20
2018-07-06T10:27:58.422Z,18.30
2018-07-06T10:30:50.596Z,13.63
2018-07-06T10:33:20.010Z,12.73
2018-07-06T10:35:49.406Z,14.60
2018-07-06T10:38:18.773Z,15.30
2018-07-06T10:40:48.195Z,17.33
2018-07-06T10:43:17.604Z,16.33
2018-07-06T10:45:46.973Z,15.77
2018-07-06T10:48:16.384Z,15.57
2018-07-06T10:50:45.766Z,16.50
2018-07-06T10:53:15.112Z,16.13
2018-07-06T10:55:44.799Z,16.10
2018-07-06T10:58:14.889Z,16.77
2018-07-06T11:00:44.367Z,15.87
2018-07-06T11:03:13.693Z,17.00
2018-07-06T11:05:43.245Z,18.13
2018-07-06T11:08:12.655Z,27.83
2018-07-06T11:10:42.023Z,19.13
2018-07-06T11:13:11.350Z,15.97
2018-07-06T11:15:40.705Z,17.37
2018-07-06T11:18:10.092Z,18.13
2018-07-06T11:20:39.408Z,19.67
2018-07-06T11:23:08.750Z,23.33
2018-07-06T11:25:38.090Z,17.57
2018-07-06T11:28:08.432Z,16.90
2018-07-06T11:30:37.907Z,17.10
2018-07-06T11:33:07.275Z,17.97
2018-07-06T11:35:36.845Z,17.17
2018-07-06T11:38:06.301Z,17.00
2018-07-06T11:40:35.590Z,29.33
2018-07-06T11:43:05.013Z,16.07
2018-07-06T11:45:34.351Z,13.57
2018-07-06T11:48:03.699Z,14.57
2018-07-06T11:50:33.336Z,15.70
2018-07-06T11:53:02.814Z,22.77
2018-07-06T11:55:32.450Z,21.93
2018-07-06T11:58:01.806Z,17.37
2018-07-06T12:00:31.434Z,12.37
2018-07-06T12:03:00.861Z,14.57
2018-07-06T12:05:30.450Z,15.10
2018-07-06T12:07:59.846Z,11.57
2018-07-06T12:10:29.342Z,13.00
2018-07-06T12:12:58.721Z,13.63
2018-07-06T12:15:28.181Z,15.03
2018-07-06T12:17:57.685Z,14.07
2018-07-06T12:20:27.125Z,13.33
2018-07-06T12:22:56.545Z,13.33
2018-07-06T12:25:26.517Z,14.50
2018-07-06T12:27:55.943Z,14.20
2018-07-06T12:30:25.345Z,14.67
2018-07-06T12:32:54.708Z,16.73
2018-07-06T12:35:24.102Z,13.63
2018-07-06T12:37:53.486Z,14.77
2018-07-06T12:40:23.010Z,13.77
2018-07-06T12:42:52.445Z,14.70
2018-07-06T12:45:21.877Z,14.27
2018-07-06T12:47:51.224Z,14.47
2018-07-06T12:50:20.604Z,17.00
2018-07-06T12:52:49.999Z,17.23
2018-07-06T12:55:19.383Z,15.57
2018-07-06T12:57:48.776Z,16.60
2018-07-06T13:00:18.129Z,16.57
2018-07-06T13:02:47.983Z,16.03
2018-07-06T13:05:17.391Z,17.67
2018-07-06T13:07:47.025Z,15.73
2018-07-06T13:10:16.412Z,16.30
2018-07-06T13:12:45.760Z,16.13
2018-07-06T13:15:15.126Z,15.63
2018-07-06T13:17:44.527Z,21.17
2018-07-06T13:20:14.490Z,16.20
2018-07-06T13:22:44.104Z,15.33
2018-07-06T13:25:13.515Z,16.37
2018-07-06T13:27:42.887Z,16.27
2018-07-06T13:30:12.323Z,15.80
2018-07-06T13:32:41.699Z,14.27
2018-07-06T13:35:11.268Z,14.83
2018-07-06T13:37:40.649Z,15.33
2018-07-06T13:40:10.081Z,15.03
2018-07-06T13:42:39.537Z,14.80
2018-07-06T13:45:08.892Z,14.27
2018-07-06T13:47:38.266Z,14.03
2018-07-06T13:50:07.634Z,14.60
2018-07-06T13:52:36.998Z,14.07
2018-07-06T13:55:06.469Z,14.63
2018-07-06T13:57:35.818Z,14.63
2018-07-06T14:00:05.225Z,13.50
2018-07-06T14:02:34.649Z,13.90
2018-07-06T14:05:04.243Z,14.70
2018-07-06T14:07:33.596Z,14.53
2018-07-06T14:10:03.010Z,13.93
2018-07-06T14:12:32.313Z,13.17
2018-07-06T14:15:01.716Z,13.80
2018-07-06T14:17:31.085Z,13.40
2018-07-06T14:20:00.466Z,14.10
2018-07-06T14:22:29.864Z,13.00
2018-07-06T14:24:59.228Z,14.43
2018-07-06T14:27:28.689Z,12.03
2018-07-06T14:29:58.063Z,12.80
2018-07-06T14:32:27.164Z,13.80
2018-07-06T14:34:56.944Z,13.67
2018-07-06T14:37:26.377Z,13.63
2018-07-06T14:39:55.766Z,13.33
2018-07-06T14:42:25.238Z,14.03
2018-07-06T14:44:54.583Z,13.10
2018-07-06T14:47:23.917Z,14.30
2018-07-06T14:49:53.266Z,14.10
2018-07-06T14:52:22.641Z,13.40
2018-07-06T14:54:52.034Z,12.40
2018-07-06T14:57:21.360Z,13.90
2018-07-06T14:59:50.670Z,14.33
2018-07-06T15:02:20.010Z,12.63
2018-07-06T15:04:49.349Z,11.77
2018-07-06T15:07:18.685Z,11.43
2018-07-06T15:09:48.917Z,11.83
2018-07-06T15:12:18.322Z,14.73
2018-07-06T15:14:47.631Z,17.30
2018-07-06T15:17:17.040Z,13.43
2018-07-06T15:19:46.356Z,13.40
2018-07-06T15:22:15.710Z,12.70
2018-07-06T15:24:45.129Z,14.70
2018-07-06T15:27:14.449Z,14.47
2018-07-06T15:29:43.799Z,11.77
2018-07-06T15:32:13.135Z,12.13
2018-07-06T15:34:42.508Z,12.17
2018-07-06T15:37:11.850Z,11.53
2018-07-06T15:39:41.157Z,12.17
2018-07-06T15:42:10.988Z,12.33
2018-07-06T15:44:40.462Z,12.13
2018-07-06T15:47:09.782Z,10.53
2018-07-06T15:49:39.157Z,11.47
2018-07-06T15:52:08.727Z,11.70
2018-07-06T15:54:37.839Z,12.27
2018-07-06T15:57:07.248Z,12.50
2018-07-06T15:59:36.595Z,10.40
2018-07-06T16:02:06.000Z,11.47
2018-07-06T16:04:35.402Z,11.13
2018-07-06T16:07:04.763Z,12.07
2018-07-06T16:09:34.179Z,11.87
2018-07-06T16:12:03.734Z,11.57
2018-07-06T16:14:33.163Z,11.80
2018-07-06T16:17:02.518Z,12.80
2018-07-06T16:19:31.892Z,12.20
2018-07-06T16:22:01.322Z,11.73
2018-07-06T16:24:30.739Z,12.73
2018-07-06T16:27:00.117Z,11.43
2018-07-06T16:29:29.565Z,13.50
2018-07-06T16:31:58.962Z,16.30
2018-07-06T16:34:28.500Z,16.53
2018-07-06T16:36:57.857Z,18.83
2018-07-06T16:39:27.534Z,17.53
2018-07-06T16:41:56.923Z,11.63
2018-07-06T16:44:26.311Z,9.20
2018-07-06T16:46:55.695Z,7.97
2018-07-06T16:49:25.039Z,7.20
2018-07-06T16:51:54.394Z,6.97
2018-07-06T16:54:23.766Z,7.80
2018-07-06T16:56:53.095Z,6.13
2018-07-06T16:59:22.429Z,7.13
2018-07-06T17:01:51.769Z,6.20
2018-07-06T17:04:21.140Z,5.40
2018-07-06T17:06:50.492Z,4.77
2018-07-06T17:09:19.966Z,5.60
2018-07-06T17:11:49.353Z,5.67
2018-07-06T17:14:18.854Z,5.90
2018-07-06T17:16:48.176Z,7.37
2018-07-06T17:19:17.629Z,8.93
2018-07-06T17:21:46.978Z,10.10
2018-07-06T17:24:16.403Z,9.10
2018-07-06T17:26:46.111Z,10.30
2018-07-06T17:29:15.398Z,10.87
2018-07-06T17:31:44.742Z,11.07
2018-07-06T17:34:14.148Z,10.70
2018-07-06T17:36:43.534Z,10.83
2018-07-06T17:39:12.956Z,10.43
2018-07-06T17:41:42.301Z,11.43
2018-07-06T17:44:11.675Z,10.90
2018-07-06T17:46:41.091Z,10.27
2018-07-06T17:49:10.561Z,10.97
2018-07-06T17:51:40.666Z,10.00
2018-07-06T17:54:10.098Z,10.10
2018-07-06T17:56:39.492Z,10.83
2018-07-06T17:59:08.897Z,10.47
2018-07-06T18:01:38.309Z,10.73
2018-07-06T18:04:07.848Z,10.53
2018-07-06T18:06:37.291Z,10.43
2018-07-06T18:09:07.238Z,11.63
2018-07-06T18:11:36.632Z,10.93
2018-07-06T18:14:06.120Z,11.50
2018-07-06T18:16:35.526Z,12.03
2018-07-06T18:19:04.987Z,11.57
2018-07-06T18:21:34.429Z,11.00
2018-07-06T18:24:03.808Z,11.47
2018-07-06T18:26:33.181Z,13.20
2018-07-06T18:29:02.578Z,10.30
2018-07-06T18:31:31.981Z,10.37
2018-07-06T18:34:01.421Z,10.20
2018-07-06T18:36:30.762Z,10.57
2018-07-06T18:39:00.268Z,10.67
2018-07-06T18:41:29.623Z,10.13
2018-07-06T18:43:58.981Z,10.27
2018-07-06T18:46:28.378Z,10.23
2018-07-06T18:48:57.715Z,10.23
2018-07-06T18:51:27.240Z,10.30
2018-07-06T18:53:56.634Z,9.97
2018-07-06T18:56:26.038Z,10.30
2018-07-06T18:58:55.465Z,10.03
2018-07-06T19:01:24.837Z,9.93
2018-07-06T19:03:54.289Z,9.90
2018-07-06T19:06:24.560Z,9.53
2018-07-06T19:08:55.364Z,9.33
2018-07-06T19:11:24.754Z,9.17
2018-07-06T19:13:54.111Z,9.50
2018-07-06T19:16:23.698Z,8.40
2018-07-06T19:18:53.232Z,8.10
2018-07-06T19:21:22.605Z,7.90
2018-07-06T19:23:52.024Z,8.17
2018-07-06T19:26:21.392Z,7.97
2018-07-06T19:28:50.895Z,7.83
2018-07-06T19:31:20.306Z,8.13
2018-07-06T19:33:49.487Z,7.90
2018-07-06T19:36:18.980Z,7.43
2018-07-06T19:38:48.980Z,7.57
2018-07-06T19:41:18.357Z,7.83
2018-07-06T19:43:47.746Z,7.30
2018-07-06T19:46:17.208Z,7.30
2018-07-06T19:48:46.687Z,7.23
2018-07-06T19:51:16.065Z,7.70
2018-07-06T19:53:45.596Z,7.93
2018-07-06T19:56:15.040Z,7.13
2018-07-06T19:58:44.420Z,9.63
2018-07-06T20:01:14.131Z,8.77
2018-07-06T20:03:43.515Z,7.90
2018-07-06T20:06:12.857Z,7.70
2018-07-06T20:08:42.326Z,7.10
2018-07-06T20:11:11.635Z,6.80
2018-07-06T20:13:41.031Z,7.07
2018-07-06T20:16:10.401Z,6.87
2018-07-06T20:18:39.825Z,6.83
2018-07-06T20:21:09.210Z,6.57
2018-07-06T20:23:38.670Z,6.33
2018-07-06T20:26:08.046Z,6.50
2018-07-06T20:28:37.447Z,7.07
2018-07-06T20:31:06.815Z,6.60
2018-07-06T20:33:36.199Z,5.90
2018-07-06T20:36:05.871Z,6.70
2018-07-06T20:38:35.253Z,6.17
2018-07-06T20:41:04.613Z,7.00
2018-07-06T20:43:34.049Z,6.67
2018-07-06T20:46:03.399Z,6.73
2018-07-06T20:48:32.779Z,5.93
2018-07-06T20:51:02.220Z,5.97
2018-07-06T20:53:31.567Z,8.07
2018-07-06T20:56:00.933Z,7.13
2018-07-06T20:58:30.282Z,5.93
2018-07-06T21:00:59.658Z,6.20
2018-07-06T21:03:28.981Z,6.80
2018-07-06T21:05:58.369Z,6.97
2018-07-06T21:08:27.711Z,7.10
2018-07-06T21:10:57.224Z,7.87
2018-07-06T21:13:26.566Z,7.80
2018-07-06T21:15:55.927Z,8.77
2018-07-06T21:18:25.285Z,8.47
2018-07-06T21:20:54.671Z,8.37
2018-07-06T21:23:24.037Z,7.90
2018-07-06T21:25:53.393Z,8.03
2018-07-06T21:28:22.714Z,8.87
2018-07-06T21:30:52.050Z,8.57
2018-07-06T21:33:21.391Z,9.03
2018-07-06T21:35:50.791Z,8.97
2018-07-06T21:38:20.085Z,7.77
2018-07-06T21:40:49.414Z,9.57
2018-07-06T21:43:18.754Z,10.47
2018-07-06T21:45:48.393Z,9.73
2018-07-06T21:48:17.724Z,9.93
2018-07-06T21:50:47.137Z,10.27
2018-07-06T21:53:16.435Z,11.33
2018-07-06T21:55:45.802Z,8.77
2018-07-06T21:58:15.139Z,8.77
2018-07-06T22:00:44.527Z,9.97
2018-07-06T22:03:13.880Z,9.20
2018-07-06T22:05:43.514Z,10.13
2018-07-06T22:08:12.873Z,9.77
2018-07-06T22:10:42.361Z,9.50
2018-07-06T22:13:11.664Z,9.90
2018-07-06T22:15:45.079Z,8.90
2018-07-06T22:18:16.298Z,9.67
2018-07-06T22:20:46.690Z,9.93
2018-07-06T22:23:16.460Z,9.77
2018-07-06T22:25:45.869Z,10.07
2018-07-06T22:28:15.290Z,10.50
2018-07-06T22:30:44.725Z,10.17
2018-07-06T22:33:14.110Z,9.87
2018-07-06T22:35:43.525Z,10.43
2018-07-06T22:38:12.941Z,10.43
2018-07-06T22:40:42.309Z,10.10
2018-07-06T22:43:11.696Z,10.30
2018-07-06T22:45:41.061Z,9.67
2018-07-06T22:48:10.454Z,10.70
2018-07-06T22:50:39.832Z,9.90
2018-07-06T22:53:09.229Z,11.00
2018-07-06T22:55:38.601Z,10.23
2018-07-06T22:58:07.941Z,8.97
2018-07-06T23:00:37.274Z,10.33
2018-07-06T23:03:06.784Z,9.43
2018-07-06T23:05:36.270Z,9.10
2018-07-06T23:08:05.823Z,9.00
2018-07-06T23:10:35.204Z,8.53
2018-07-06T23:13:04.573Z,9.23
2018-07-06T23:15:34.326Z,8.47
2018-07-06T23:18:03.677Z,8.50
2018-07-06T23:20:32.998Z,8.83
2018-07-06T23:23:10.150Z,9.50
2018-07-06T23:25:41.763Z,8.67
2018-07-06T23:28:11.168Z,9.20
2018-07-06T23:30:40.614Z,9.27
2018-07-06T23:33:10.537Z,9.10
2018-07-06T23:35:40.069Z,9.43
2018-07-06T23:38:09.597Z,9.03
2018-07-06T23:40:38.888Z,9.03
2018-07-06T23:43:08.237Z,8.77
2018-07-06T23:45:37.601Z,9.20
2018-07-06T23:48:06.980Z,8.40
2018-07-06T23:50:36.346Z,7.67
2018-07-06T23:53:05.926Z,8.00
2018-07-06T23:55:35.266Z,7.87
2018-07-06T23:58:04.593Z,8.43
